createdAt,value
2019-03-04T00:01:54.582Z,85.50
2019-03-04T00:04:28.452Z,85.90
2019-03-04T00:07:02.289Z,86.20
2019-03-04T00:09:36.957Z,86.70
2019-03-04T00:12:10.902Z,87.10
2019-03-04T00:14:44.600Z,88.20
2019-03-04T00:17:18.496Z,89.10
2019-03-04T00:19:52.061Z,89.50
2019-03-04T00:22:25.841Z,90.00
2019-03-04T00:24:59.929Z,90.30
2019-03-04T00:27:33.888Z,89.60
2019-03-04T00:30:07.986Z,88.10
2019-03-04T00:32:41.971Z,87.80
2019-03-04T00:35:15.452Z,86.80
2019-03-04T00:37:49.929Z,86.20
2019-03-04T00:40:23.851Z,85.80
2019-03-04T00:42:57.695Z,84.50
2019-03-04T00:45:32.075Z,83.40
2019-03-04T00:48:05.922Z,82.00
2019-03-04T00:50:39.500Z,81.20
2019-03-04T00:53:13.418Z,82.10
2019-03-04T00:55:47.291Z,83.90
2019-03-04T00:58:21.052Z,83.90
2019-03-04T01:00:54.578Z,85.10
2019-03-04T01:03:28.257Z,84.90
2019-03-04T01:06:03.397Z,85.10
2019-03-04T01:08:40.250Z,85.20
2019-03-04T01:11:15.085Z,85.10
2019-03-04T01:13:48.916Z,85.00
2019-03-04T01:16:22.609Z,85.40
2019-03-04T01:18:56.465Z,85.80
2019-03-04T01:21:29.994Z,86.10
2019-03-04T01:24:03.920Z,86.40
2019-03-04T01:26:37.448Z,85.80
2019-03-04T01:29:11.300Z,86.30
2019-03-04T01:31:44.907Z,86.70
2019-03-04T01:34:18.386Z,86.90
2019-03-04T01:36:52.368Z,86.80
2019-03-04T01:39:26.267Z,86.60
2019-03-04T01:42:00.078Z,86.80
2019-03-04T01:44:33.782Z,87.10
2019-03-04T01:47:07.409Z,87.40
2019-03-04T01:49:41.751Z,87.50
2019-03-04T01:52:15.247Z,87.20
2019-03-04T01:54:49.048Z,87.50
2019-03-04T01:57:22.689Z,87.70
2019-03-04T01:59:56.598Z,88.40
2019-03-04T02:02:29.819Z,88.60
2019-03-04T02:05:03.832Z,89.10
2019-03-04T02:07:37.360Z,89.20
2019-03-04T02:10:13.301Z,89.10
2019-03-04T02:12:50.424Z,90.00
2019-03-04T02:15:24.341Z,88.90
2019-03-04T02:17:58.088Z,87.40
2019-03-04T02:20:31.907Z,85.20
2019-03-04T02:23:05.353Z,84.00
2019-03-04T02:26:21.240Z,83.60
2019-03-04T02:28:54.807Z,83.50
2019-03-04T02:31:28.760Z,82.80
2019-03-04T02:34:02.292Z,83.10
2019-03-04T02:36:36.130Z,83.00
2019-03-04T02:39:09.918Z,83.10
2019-03-04T02:41:44.237Z,83.80
2019-03-04T02:44:18.007Z,83.80
2019-03-04T02:46:51.964Z,83.60
2019-03-04T02:49:25.521Z,84.10
2019-03-04T02:51:59.450Z,84.20
2019-03-04T02:54:32.932Z,84.00
2019-03-04T02:57:07.440Z,84.20
2019-03-04T02:59:41.600Z,84.00
2019-03-04T03:02:15.465Z,84.70
2019-03-04T03:04:48.933Z,84.40
2019-03-04T03:07:22.974Z,84.30
2019-03-04T03:09:56.485Z,85.00
2019-03-04T03:12:30.327Z,85.10
2019-03-04T03:15:05.561Z,85.30
2019-03-04T03:17:39.537Z,86.20
2019-03-04T03:20:13.451Z,86.50
2019-03-04T03:22:47.593Z,86.60
2019-03-04T03:25:21.268Z,86.60
2019-03-04T03:27:55.091Z,86.70
2019-03-04T03:30:28.685Z,86.60
2019-03-04T03:33:02.660Z,86.20
2019-03-04T03:35:36.836Z,85.60
2019-03-04T03:38:10.688Z,84.60
2019-03-04T03:40:44.208Z,83.60
2019-03-04T03:43:18.085Z,83.60
2019-03-04T03:45:51.851Z,83.00
2019-03-04T03:48:25.802Z,82.10
2019-03-04T03:50:59.388Z,81.90
2019-03-04T03:53:33.319Z,82.10
2019-03-04T03:56:06.992Z,81.50
2019-03-04T03:58:40.982Z,81.00
2019-03-04T04:01:14.643Z,80.80
2019-03-04T04:03:48.747Z,80.30
2019-03-04T04:06:21.790Z,80.00
2019-03-04T04:08:56.153Z,80.20
2019-03-04T04:11:29.720Z,79.70
2019-03-04T04:14:03.619Z,80.00
2019-03-04T04:16:42.797Z,80.40
2019-03-04T04:19:16.730Z,80.90
2019-03-04T04:21:50.737Z,81.30
2019-03-04T04:24:24.687Z,82.10
2019-03-04T04:26:58.491Z,81.90
2019-03-04T04:29:32.462Z,81.60
2019-03-04T04:32:05.939Z,81.90
2019-03-04T04:34:39.715Z,83.10
2019-03-04T04:37:13.211Z,83.80
2019-03-04T04:39:47.149Z,84.00
2019-03-04T04:42:20.808Z,84.30
2019-03-04T04:44:55.653Z,84.90
2019-03-04T04:47:29.404Z,85.20
2019-03-04T04:50:03.333Z,86.20
2019-03-04T04:52:36.744Z,87.00
2019-03-04T04:55:10.646Z,87.40
2019-03-04T04:57:44.476Z,87.50
2019-03-04T05:00:18.688Z,87.50
2019-03-04T05:02:52.518Z,87.40
2019-03-04T05:05:26.408Z,88.00
2019-03-04T05:08:00.014Z,90.10
2019-03-04T05:10:35.041Z,89.20
2019-03-04T05:13:08.733Z,88.70
2019-03-04T05:15:42.679Z,87.50
2019-03-04T05:18:17.479Z,87.70
2019-03-04T05:20:51.421Z,88.10
2019-03-04T05:23:25.012Z,86.90
2019-03-04T05:25:59.237Z,87.90
2019-03-04T05:28:36.978Z,88.30
2019-03-04T05:31:11.454Z,89.00
2019-03-04T05:33:45.678Z,88.50
2019-03-04T05:36:20.853Z,87.90
2019-03-04T05:38:54.428Z,88.60
2019-03-04T05:41:28.501Z,88.20
2019-03-04T05:44:02.193Z,88.00
2019-03-04T05:46:36.980Z,86.20
2019-03-04T05:49:10.742Z,86.30
2019-03-04T05:51:45.295Z,86.10
2019-03-04T05:54:19.983Z,85.90
2019-03-04T05:56:53.835Z,86.10
2019-03-04T05:59:27.630Z,87.30
2019-03-04T06:02:06.615Z,87.80
2019-03-04T06:04:41.305Z,88.50
2019-03-04T06:07:26.023Z,88.40
2019-03-04T06:10:00.472Z,88.20
2019-03-04T06:12:34.777Z,87.90
2019-03-04T06:15:10.690Z,88.30
2019-03-04T06:17:44.858Z,88.20
2019-03-04T06:20:20.378Z,87.80
2019-03-04T06:22:54.428Z,87.70
2019-03-04T06:25:29.345Z,87.90
2019-03-04T06:28:05.715Z,87.90
2019-03-04T06:30:39.355Z,87.50
2019-03-04T06:33:13.641Z,87.20
2019-03-04T06:35:48.070Z,87.30
2019-03-04T06:38:22.261Z,86.90
2019-03-04T06:40:56.331Z,86.90
2019-03-04T06:43:31.658Z,86.80
2019-03-04T06:46:08.030Z,86.20
2019-03-04T06:48:43.839Z,85.10
2019-03-04T06:51:31.616Z,84.30
2019-03-04T06:54:09.773Z,83.40
2019-03-04T06:56:54.655Z,82.00
2019-03-04T06:59:38.405Z,80.60
2019-03-04T07:02:14.793Z,79.60
2019-03-04T07:05:19.151Z,78.30
2019-03-04T07:07:53.146Z,77.50
2019-03-04T07:10:27.957Z,77.30
2019-03-04T07:13:02.175Z,77.10
2019-03-04T07:15:36.601Z,76.80
2019-03-04T07:18:11.358Z,77.10
2019-03-04T07:20:46.595Z,77.10
2019-03-04T07:23:21.204Z,77.10
2019-03-04T07:25:56.628Z,77.40
2019-03-04T07:28:30.654Z,77.40
2019-03-04T07:31:07.487Z,77.40
2019-03-04T07:33:41.683Z,77.30
2019-03-04T07:36:17.072Z,77.10
2019-03-04T07:38:58.768Z,76.30
2019-03-04T07:41:38.269Z,75.10
2019-03-04T07:44:12.710Z,74.90
2019-03-04T07:46:47.290Z,74.60
2019-03-04T07:49:21.853Z,74.60
2019-03-04T07:51:56.806Z,74.20
2019-03-04T07:54:32.467Z,74.20
2019-03-04T07:57:07.407Z,73.70
2019-03-04T07:59:41.668Z,73.50
2019-03-04T08:02:16.366Z,73.00
2019-03-04T08:04:51.798Z,71.80
2019-03-04T08:07:54.859Z,70.90
2019-03-04T08:10:49.211Z,68.50
2019-03-04T08:13:30.739Z,67.30
2019-03-04T08:16:05.887Z,65.60
2019-03-04T08:18:41.278Z,65.40
2019-03-04T08:21:16.192Z,65.10
2019-03-04T08:23:50.534Z,65.60
2019-03-04T08:26:26.606Z,65.10
2019-03-04T08:29:01.680Z,63.40
2019-03-04T08:31:38.287Z,63.20
2019-03-04T08:34:12.898Z,63.90
2019-03-04T08:36:48.383Z,64.20
2019-03-04T08:39:26.159Z,63.20
2019-03-04T08:42:02.583Z,60.20
2019-03-04T08:44:37.633Z,58.70
2019-03-04T08:47:12.567Z,58.40
2019-03-04T08:49:49.045Z,58.90
2019-03-04T08:52:24.920Z,59.40
2019-03-04T08:54:59.021Z,58.00
2019-03-04T08:57:34.547Z,57.90
2019-03-04T09:00:11.193Z,57.70
2019-03-04T09:02:46.562Z,56.60
2019-03-04T09:05:24.892Z,56.00
2019-03-04T09:07:58.886Z,56.10
2019-03-04T09:10:34.472Z,56.00
2019-03-04T09:13:09.208Z,56.10
2019-03-04T09:15:44.686Z,55.80
2019-03-04T09:18:19.172Z,54.60
2019-03-04T09:20:55.299Z,53.60
2019-03-04T09:23:29.889Z,54.10
2019-03-04T09:26:08.558Z,53.20
2019-03-04T09:28:43.137Z,52.90
2019-03-04T09:31:17.643Z,52.90
2019-03-04T09:33:52.175Z,52.60
2019-03-04T09:36:26.695Z,52.60
2019-03-04T09:39:03.185Z,52.20
2019-03-04T09:41:38.712Z,51.80
2019-03-04T09:44:13.209Z,52.00
2019-03-04T09:46:47.040Z,52.40
2019-03-04T09:49:20.973Z,52.30
2019-03-04T09:51:56.315Z,50.20
2019-03-04T09:54:30.547Z,50.50
2019-03-04T09:57:04.791Z,50.70
2019-03-04T09:59:42.400Z,50.50
2019-03-04T10:02:20.307Z,50.10
2019-03-04T10:05:19.776Z,49.90
2019-03-04T10:08:32.353Z,49.80
2019-03-04T10:11:26.021Z,49.70
2019-03-04T10:14:21.519Z,49.30
2019-03-04T10:17:43.245Z,49.90
2019-03-04T10:20:53.433Z,49.30
2019-03-04T10:24:07.085Z,50.30
2019-03-04T10:27:18.705Z,50.00
2019-03-04T10:30:20.659Z,49.80
2019-03-04T10:33:09.944Z,49.90
2019-03-04T10:35:59.420Z,49.40
2019-03-04T10:39:22.416Z,49.90
2019-03-04T10:42:49.062Z,50.10
2019-03-04T10:45:52.334Z,48.70
2019-03-04T10:48:27.487Z,49.20
2019-03-04T10:51:02.646Z,49.30
2019-03-04T10:53:37.513Z,49.50
2019-03-04T10:56:14.599Z,49.20
2019-03-04T10:58:49.755Z,49.80
2019-03-04T11:01:30.377Z,49.40
2019-03-04T11:04:00.912Z,49.00
2019-03-04T11:06:35.882Z,49.50
2019-03-04T11:09:11.074Z,49.60
2019-03-04T11:11:45.790Z,50.90
2019-03-04T11:14:21.851Z,49.60
2019-03-04T11:16:56.703Z,49.90
2019-03-04T11:19:31.850Z,48.70
2019-03-04T11:22:06.612Z,48.70
2019-03-04T11:24:42.495Z,49.20
2019-03-04T11:27:17.108Z,49.20
2019-03-04T11:29:51.270Z,48.60
2019-03-04T11:32:25.844Z,48.20
2019-03-04T11:35:00.313Z,48.70
2019-03-04T11:37:35.383Z,48.40
2019-03-04T11:40:40.064Z,48.40
2019-03-04T11:43:16.943Z,48.40
2019-03-04T11:45:52.059Z,48.70
2019-03-04T11:48:27.218Z,48.20
2019-03-04T11:51:01.286Z,47.70
2019-03-04T11:53:37.965Z,47.90
2019-03-04T11:56:13.323Z,48.00
2019-03-04T11:58:47.596Z,47.40
2019-03-04T12:01:41.866Z,47.20
2019-03-04T12:04:31.408Z,47.90
2019-03-04T12:07:06.745Z,47.00
2019-03-04T12:09:41.207Z,47.20
2019-03-04T12:12:16.776Z,47.20
2019-03-04T12:14:50.796Z,47.50
2019-03-04T12:17:25.125Z,47.00
2019-03-04T12:19:59.619Z,47.10
2019-03-04T12:22:34.166Z,47.10
2019-03-04T12:25:11.144Z,47.10
2019-03-04T12:27:46.870Z,47.00
2019-03-04T12:30:23.220Z,47.20
2019-03-04T12:32:58.400Z,47.70
2019-03-04T12:35:33.412Z,47.70
2019-03-04T12:38:07.947Z,48.30
2019-03-04T12:40:49.874Z,48.30
2019-03-04T12:43:26.201Z,48.30
2019-03-04T12:46:00.795Z,48.50
2019-03-04T12:48:35.865Z,48.70
2019-03-04T12:51:11.301Z,49.10
2019-03-04T12:53:50.128Z,48.90
2019-03-04T12:56:26.561Z,49.20
2019-03-04T12:59:01.065Z,48.90
2019-03-04T13:01:35.767Z,48.80
2019-03-04T13:04:10.904Z,49.10
2019-03-04T13:06:45.139Z,49.30
2019-03-04T13:09:19.960Z,49.60
2019-03-04T13:11:55.100Z,48.90
2019-03-04T13:14:33.382Z,49.10
2019-03-04T13:17:08.311Z,48.70
2019-03-04T13:19:42.308Z,49.00
2019-03-04T13:22:20.576Z,48.30
2019-03-04T13:24:54.918Z,48.60
2019-03-04T13:27:29.564Z,49.10
2019-03-04T13:30:03.579Z,48.60
2019-03-04T13:32:39.426Z,48.30
2019-03-04T13:35:23.942Z,48.90
2019-03-04T13:37:54.496Z,48.20
2019-03-04T13:40:28.636Z,48.40
2019-03-04T13:43:03.263Z,48.20
2019-03-04T13:45:37.781Z,47.80
2019-03-04T13:48:13.123Z,47.70
2019-03-04T13:50:48.229Z,47.50
2019-03-04T13:53:23.978Z,46.90
2019-03-04T13:55:58.667Z,47.50
2019-03-04T13:58:37.629Z,47.70
2019-03-04T14:01:13.441Z,47.60
2019-03-04T14:03:47.884Z,47.60
2019-03-04T14:06:23.198Z,47.00
2019-03-04T14:08:58.447Z,46.90
2019-03-04T14:11:32.671Z,46.60
2019-03-04T14:14:13.318Z,46.60
2019-03-04T14:16:47.943Z,47.30
2019-03-04T14:19:22.001Z,46.40
2019-03-04T14:21:57.574Z,47.20
2019-03-04T14:24:35.676Z,46.50
2019-03-04T14:27:10.562Z,45.80
2019-03-04T14:29:45.276Z,46.20
2019-03-04T14:32:24.025Z,46.30
2019-03-04T14:35:01.026Z,47.00
2019-03-04T14:37:38.703Z,47.10
2019-03-04T14:40:14.675Z,47.30
2019-03-04T14:42:49.441Z,47.40
2019-03-04T14:45:27.771Z,47.60
2019-03-04T14:48:01.757Z,46.90
2019-03-04T14:50:39.416Z,47.10
2019-03-04T14:53:14.011Z,47.10
2019-03-04T14:55:48.910Z,47.40
2019-03-04T14:58:25.389Z,46.90
2019-03-04T15:01:04.852Z,47.10
2019-03-04T15:03:40.711Z,46.80
2019-03-04T15:06:16.353Z,47.10
2019-03-04T15:09:13.265Z,47.00
2019-03-04T15:11:47.678Z,47.40
2019-03-04T15:14:22.765Z,48.00
2019-03-04T15:17:03.257Z,47.50
2019-03-04T15:19:36.767Z,48.00
2019-03-04T15:22:10.926Z,48.00
2019-03-04T15:24:45.434Z,47.90
2019-03-04T15:27:20.155Z,47.80
2019-03-04T15:29:54.877Z,48.20
2019-03-04T15:32:30.249Z,48.70
2019-03-04T15:35:04.589Z,48.90
2019-03-04T15:37:40.082Z,48.90
2019-03-04T15:40:14.733Z,49.80
2019-03-04T15:42:50.962Z,49.70
2019-03-04T15:45:24.307Z,49.00
2019-03-04T15:48:00.403Z,48.90
2019-03-04T15:50:34.822Z,48.30
2019-03-04T15:53:09.117Z,48.30
2019-03-04T15:55:43.574Z,48.80
2019-03-04T15:58:18.655Z,47.90
2019-03-04T16:00:53.398Z,48.50
2019-03-04T16:03:29.423Z,49.40
2019-03-04T16:06:04.296Z,50.40
2019-03-04T16:08:39.220Z,51.20
2019-03-04T16:11:13.837Z,51.50
2019-03-04T16:13:52.987Z,52.30
2019-03-04T16:16:25.628Z,53.60
2019-03-04T16:19:00.090Z,54.50
2019-03-04T16:21:34.139Z,54.90
2019-03-04T16:24:11.816Z,56.20
2019-03-04T16:26:47.211Z,57.40
2019-03-04T16:29:21.869Z,57.90
2019-03-04T16:31:57.097Z,58.60
2019-03-04T16:34:32.550Z,59.40
2019-03-04T16:37:10.808Z,59.80
2019-03-04T16:39:45.248Z,60.20
2019-03-04T16:42:30.231Z,60.70
2019-03-04T16:45:07.042Z,61.50
2019-03-04T16:47:45.797Z,62.20
2019-03-04T16:50:19.983Z,62.90
2019-03-04T16:52:55.528Z,63.50
2019-03-04T16:55:30.823Z,64.00
2019-03-04T16:58:05.762Z,64.60
2019-03-04T17:00:39.327Z,65.70
2019-03-04T17:03:16.803Z,65.60
2019-03-04T17:05:52.041Z,66.00
2019-03-04T17:08:27.421Z,66.40
2019-03-04T17:11:01.988Z,67.30
2019-03-04T17:13:36.425Z,67.20
2019-03-04T17:16:11.702Z,67.20
2019-03-04T17:18:45.636Z,67.60
2019-03-04T17:21:20.631Z,68.30
2019-03-04T17:23:54.974Z,68.50
2019-03-04T17:26:29.143Z,68.60
2019-03-04T17:29:03.827Z,68.70
2019-03-04T17:31:43.294Z,68.90
2019-03-04T17:34:22.190Z,69.90
2019-03-04T17:36:57.177Z,69.50
2019-03-04T17:39:31.305Z,69.60
2019-03-04T17:42:06.627Z,70.00
2019-03-04T17:44:43.518Z,70.30
2019-03-04T17:47:19.352Z,70.70
2019-03-04T17:49:56.122Z,71.00
2019-03-04T17:52:31.093Z,71.40
2019-03-04T17:55:05.502Z,72.20
2019-03-04T17:57:41.397Z,72.50
2019-03-04T18:00:17.493Z,72.40
2019-03-04T18:02:51.156Z,72.90
2019-03-04T18:05:26.725Z,73.00
2019-03-04T18:08:01.248Z,73.30
2019-03-04T18:10:37.600Z,73.60
2019-03-04T18:13:13.796Z,74.60
2019-03-04T18:15:48.513Z,73.70
2019-03-04T18:18:23.959Z,72.90
2019-03-04T18:20:58.559Z,74.00
2019-03-04T18:23:33.445Z,74.50
2019-03-04T18:26:22.245Z,75.20
2019-03-04T18:29:24.562Z,76.10
2019-03-04T18:33:02.703Z,75.60
2019-03-04T18:36:32.759Z,75.90
2019-03-04T18:39:52.190Z,76.40
2019-03-04T18:42:52.392Z,77.30
2019-03-04T18:46:00.014Z,78.40
2019-03-04T18:48:59.903Z,78.30
2019-03-04T18:51:35.263Z,78.40
2019-03-04T18:54:17.598Z,78.40
2019-03-04T18:56:52.354Z,78.40
2019-03-04T18:59:27.197Z,79.00
2019-03-04T19:02:02.698Z,79.10
2019-03-04T19:04:38.000Z,78.40
2019-03-04T19:07:14.803Z,77.70
2019-03-04T19:09:49.956Z,78.30
2019-03-04T19:12:24.624Z,78.30
2019-03-04T19:14:59.700Z,78.70
2019-03-04T19:17:35.867Z,79.00
2019-03-04T19:20:13.639Z,78.70
2019-03-04T19:22:50.016Z,78.90
2019-03-04T19:25:30.350Z,79.10
2019-03-04T19:28:14.033Z,78.90
2019-03-04T19:30:49.672Z,78.90
2019-03-04T19:33:24.586Z,78.60
2019-03-04T19:36:00.776Z,78.10
2019-03-04T19:38:35.731Z,78.00
2019-03-04T19:41:10.699Z,77.90
2019-03-04T19:43:48.499Z,77.50
2019-03-04T19:46:23.478Z,77.70
2019-03-04T19:48:58.365Z,77.30
2019-03-04T19:51:33.117Z,77.50
2019-03-04T19:54:07.953Z,78.60
2019-03-04T19:56:42.706Z,79.10
2019-03-04T19:59:17.527Z,80.00
2019-03-04T20:01:52.662Z,80.00
2019-03-04T20:04:26.939Z,79.90
2019-03-04T20:07:02.615Z,79.90
2019-03-04T20:09:37.118Z,79.60
2019-03-04T20:12:13.212Z,78.90
2019-03-04T20:14:47.363Z,79.10
2019-03-04T20:17:23.323Z,79.20
2019-03-04T20:20:06.289Z,79.50
2019-03-04T20:22:43.414Z,79.80
2019-03-04T20:25:17.707Z,80.00
2019-03-04T20:27:52.302Z,80.10
2019-03-04T20:30:26.517Z,80.70
2019-03-04T20:33:00.653Z,81.20
2019-03-04T20:35:34.727Z,81.40
2019-03-04T20:38:12.276Z,81.70
2019-03-04T20:40:46.286Z,81.80
2019-03-04T20:43:24.447Z,82.00
2019-03-04T20:45:58.537Z,82.20
2019-03-04T20:48:32.986Z,82.10
2019-03-04T20:51:12.849Z,82.20
2019-03-04T20:53:47.639Z,82.00
2019-03-04T20:56:21.863Z,82.40
2019-03-04T20:58:57.920Z,82.00
2019-03-04T21:01:31.493Z,81.20
2019-03-04T21:04:06.089Z,80.90
2019-03-04T21:06:39.891Z,81.20
2019-03-04T21:09:16.175Z,81.70
2019-03-04T21:11:50.435Z,81.70
2019-03-04T21:14:25.282Z,81.40
2019-03-04T21:17:00.470Z,81.20
2019-03-04T21:19:34.535Z,80.70
2019-03-04T21:22:09.061Z,81.10
2019-03-04T21:24:43.862Z,81.00
2019-03-04T21:27:23.543Z,81.40
2019-03-04T21:30:36.847Z,81.90
2019-03-04T21:33:32.077Z,82.40
2019-03-04T21:36:34.187Z,82.70
2019-03-04T21:39:11.621Z,82.80
2019-03-04T21:42:19.293Z,82.90
2019-03-04T21:45:40.756Z,82.60
2019-03-04T21:48:25.002Z,82.40
2019-03-04T21:51:05.277Z,82.00
2019-03-04T21:53:43.702Z,82.10
2019-03-04T21:56:42.310Z,81.90
2019-03-04T21:59:17.291Z,82.20
2019-03-04T22:01:55.994Z,81.80
2019-03-04T22:04:30.368Z,82.00
2019-03-04T22:07:06.035Z,81.50
2019-03-04T22:09:40.069Z,81.20
2019-03-04T22:12:15.739Z,81.30
2019-03-04T22:14:50.388Z,81.40
2019-03-04T22:17:24.204Z,81.50
2019-03-04T22:19:58.637Z,81.30
2019-03-04T22:22:33.188Z,81.10
2019-03-04T22:25:08.141Z,80.90
2019-03-04T22:27:42.174Z,80.80
2019-03-04T22:30:18.156Z,80.50
2019-03-04T22:32:58.551Z,81.20
2019-03-04T22:35:32.811Z,81.00
2019-03-04T22:38:06.711Z,80.50
2019-03-04T22:40:43.375Z,80.30
2019-03-04T22:43:17.084Z,79.70
2019-03-04T22:45:51.746Z,79.60
2019-03-04T22:48:26.629Z,79.20
2019-03-04T22:51:00.743Z,78.80
2019-03-04T22:53:34.569Z,78.80
2019-03-04T22:56:10.219Z,78.70
2019-03-04T22:58:43.602Z,78.50
2019-03-04T23:02:02.770Z,78.50
2019-03-04T23:04:54.279Z,78.40
2019-03-04T23:07:34.166Z,78.20
2019-03-04T23:10:49.545Z,78.10
2019-03-04T23:13:56.312Z,78.10
2019-03-04T23:16:32.130Z,77.90
2019-03-04T23:19:07.439Z,78.10
2019-03-04T23:21:41.161Z,77.70
2019-03-04T23:24:15.307Z,77.70
2019-03-04T23:26:48.967Z,77.60
2019-03-04T23:29:24.548Z,77.60
2019-03-04T23:31:58.501Z,77.40
2019-03-04T23:34:34.237Z,77.20
2019-03-04T23:37:09.393Z,77.40
2019-03-04T23:39:44.087Z,77.20
2019-03-04T23:42:21.598Z,77.30
2019-03-04T23:44:56.236Z,77.20
2019-03-04T23:47:30.108Z,77.10
2019-03-04T23:50:22.512Z,77.20
2019-03-04T23:52:57.227Z,77.20
2019-03-04T23:55:31.247Z,77.30
2019-03-04T23:58:05.230Z,77.30
